Time;durP1;ratioP1;P1;durP2;ratioP2;P2;SDS_P1;SDS_P2;PMS_P1;PMS_P2;Temp;Humidity;BMP_temperature;BMP_pressure;BME280_temperature;BME280_humidity;BME280_pressure;Samples;Min_cycle;Max_cycle;Signal;HPM_P1;HPM_P2
2023/04/09 00:01:19;;;;;;;75.30;63.72;;;8.50;99.90;;;;;;5054380;28;20036;-77
2023/04/09 00:03:45;;;;;;;74.47;63.70;;;8.50;99.90;;;;;;5054328;28;20119;-77
2023/04/09 00:06:11;;;;;;;75.15;64.80;;;8.60;99.90;;;;;;5054002;28;20036;-77
2023/04/09 00:08:36;;;;;;;71.47;62.03;;;8.70;99.90;;;;;;5035391;28;20036;-77
2023/04/09 00:11:02;;;;;;;73.85;63.85;;;8.60;99.90;;;;;;5049386;28;20397;-77
2023/04/09 00:13:28;;;;;;;74.22;64.38;;;8.50;99.90;;;;;;5054175;28;20047;-77
2023/04/09 00:15:54;;;;;;;74.55;64.18;;;8.50;99.90;;;;;;5054495;28;20037;-77
2023/04/09 00:18:19;;;;;;;73.15;63.88;;;8.50;99.90;;;;;;5055076;28;20461;-77
2023/04/09 00:20:45;;;;;;;74.30;63.38;;;8.50;99.90;;;;;;5071497;28;20044;-77
2023/04/09 00:23:10;;;;;;;72.38;64.18;;;8.50;99.90;;;;;;5053379;28;20067;-77
2023/04/09 00:25:36;;;;;;;74.57;66.38;;;8.50;99.90;;;;;;5054641;28;20036;-77
2023/04/09 00:28:02;;;;;;;71.85;63.08;;;8.50;99.90;;;;;;5054934;28;20093;-77
2023/04/09 00:30:31;;;;;;;71.97;63.75;;;8.50;99.90;;;;;;5054527;28;20510;-77
2023/04/09 00:32:57;;;;;;;68.00;60.25;;;8.50;99.90;;;;;;5054014;28;20040;-77
2023/04/09 00:35:23;;;;;;;67.55;57.17;;;8.40;99.90;;;;;;5054515;28;20120;-77
2023/04/09 00:37:49;;;;;;;70.97;59.63;;;8.40;99.90;;;;;;5045631;28;20114;-77
2023/04/09 00:40:15;;;;;;;68.20;57.53;;;8.40;99.90;;;;;;5054121;28;20151;-77
2023/04/09 00:42:40;;;;;;;67.10;59.83;;;8.40;99.90;;;;;;5053696;28;20135;-77
2023/04/09 00:45:07;;;;;;;65.43;57.75;;;8.40;99.90;;;;;;5053679;28;20048;-77
2023/04/09 00:47:34;;;;;;;61.42;52.05;;;8.40;99.90;;;;;;5052190;28;20036;-77
2023/04/09 00:50:01;;;;;;;55.30;48.47;;;8.40;99.90;;;;;;5070950;28;20371;-77
2023/04/09 00:52:29;;;;;;;61.63;54.65;;;8.40;99.90;;;;;;5070122;28;20126;-77
2023/04/09 00:54:57;;;;;;;57.25;50.80;;;8.40;99.90;;;;;;5054163;28;20032;-77
2023/04/09 00:57:23;;;;;;;60.40;52.67;;;8.30;99.90;;;;;;5053976;28;20093;-77
2023/04/09 00:59:49;;;;;;;56.47;48.03;;;8.30;99.90;;;;;;5053445;28;20504;-77
2023/04/09 01:02:15;;;;;;;55.67;47.47;;;8.40;99.90;;;;;;5052081;28;20167;-77
2023/04/09 01:04:42;;;;;;;58.47;49.88;;;8.40;99.90;;;;;;5054135;28;20063;-77
2023/04/09 01:07:14;;;;;;;57.40;50.83;;;8.30;99.90;;;;;;5054050;28;20033;-77
2023/04/09 01:09:53;;;;;;;61.10;51.97;;;8.30;99.90;;;;;;5070675;28;20097;-77
2023/04/09 01:12:49;;;;;;;61.35;52.65;;;8.30;99.90;;;;;;5051665;28;20298;-77
2023/04/09 01:15:21;;;;;;;65.43;54.83;;;8.20;99.90;;;;;;5041938;28;20063;-77
2023/04/09 01:17:55;;;;;;;66.30;56.13;;;8.20;99.90;;;;;;5034013;28;20147;-77
2023/04/09 01:20:42;;;;;;;67.35;56.97;;;8.30;99.90;;;;;;5033716;28;20122;-77
2023/04/09 01:23:26;;;;;;;71.07;59.20;;;8.20;99.90;;;;;;5050952;28;20064;-77
2023/04/09 01:26:35;;;;;;;72.15;58.20;;;8.30;99.90;;;;;;5053641;28;20048;-77
2023/04/09 01:29:03;;;;;;;72.25;59.33;;;8.20;99.90;;;;;;5069620;28;20063;-76
2023/04/09 01:31:37;;;;;;;72.60;58.30;;;8.20;99.90;;;;;;5053095;28;20032;-77
2023/04/09 01:34:05;;;;;;;70.90;58.55;;;8.20;99.90;;;;;;5052640;28;20044;-77
2023/04/09 01:36:32;;;;;;;70.10;56.92;;;8.20;99.90;;;;;;5050665;28;20068;-77
2023/04/09 01:39:00;;;;;;;73.03;57.92;;;8.20;99.90;;;;;;5046765;28;20517;-77
2023/04/09 01:41:26;;;;;;;74.70;58.60;;;8.20;99.90;;;;;;5050014;28;20080;-77
2023/04/09 01:43:52;;;;;;;68.90;55.30;;;8.20;99.90;;;;;;5053062;28;20044;-77
2023/04/09 01:46:23;;;;;;;69.40;53.97;;;8.30;99.90;;;;;;5052616;28;20635;-77
2023/04/09 01:48:56;;;;;;;66.25;54.13;;;8.20;99.90;;;;;;5064529;28;20041;-77
2023/04/09 01:51:21;;;;;;;65.78;53.78;;;8.20;99.90;;;;;;5050456;28;20052;-77
2023/04/09 01:53:48;;;;;;;66.50;53.28;;;8.10;99.90;;;;;;5052944;28;20090;-77
2023/04/09 01:56:14;;;;;;;60.33;49.05;;;8.10;99.90;;;;;;5053076;28;20119;-77
2023/04/09 01:58:40;;;;;;;62.95;50.38;;;8.10;99.90;;;;;;5050991;28;20120;-77
2023/04/09 02:01:10;;;;;;;62.97;49.25;;;8.10;99.90;;;;;;5052637;28;20081;-76
2023/04/09 02:03:52;;;;;;;59.42;47.47;;;8.10;99.90;;;;;;5051850;28;20029;-77
2023/04/09 02:06:18;;;;;;;58.60;47.10;;;8.10;99.90;;;;;;5053523;28;20036;-77
2023/04/09 02:08:46;;;;;;;59.60;49.00;;;8.00;99.90;;;;;;5053442;28;20507;-77
2023/04/09 02:11:13;;;;;;;59.25;46.78;;;8.00;99.90;;;;;;5053152;28;20052;-77
2023/04/09 02:13:40;;;;;;;55.80;47.35;;;8.00;99.90;;;;;;5049486;28;20597;-76
2023/04/09 02:16:16;;;;;;;58.85;48.83;;;8.00;99.90;;;;;;5051595;28;20040;-77
2023/04/09 02:18:41;;;;;;;57.38;46.95;;;8.00;99.90;;;;;;5045127;28;20045;-77
2023/04/09 02:21:09;;;;;;;57.67;47.45;;;8.00;99.90;;;;;;5052798;28;20068;-77
2023/04/09 02:23:35;;;;;;;58.85;47.67;;;8.00;99.90;;;;;;5051230;28;20036;-76
2023/04/09 02:26:01;;;;;;;61.15;46.50;;;7.90;99.90;;;;;;5069341;28;20043;-77
2023/04/09 02:28:27;;;;;;;58.30;48.03;;;8.00;99.90;;;;;;5068316;28;20037;-76
2023/04/09 02:30:55;;;;;;;59.05;47.08;;;7.90;99.90;;;;;;5046996;28;20056;-76
2023/04/09 02:33:21;;;;;;;58.28;46.05;;;7.90;99.90;;;;;;5043365;28;20043;-77
2023/04/09 02:35:49;;;;;;;55.22;44.80;;;8.00;99.90;;;;;;5059808;28;20406;-77
2023/04/09 02:38:17;;;;;;;61.67;47.90;;;8.00;99.90;;;;;;5061153;28;20041;-77
2023/04/09 02:40:43;;;;;;;59.15;46.40;;;7.90;99.90;;;;;;5060855;28;20498;-77
2023/04/09 02:43:11;;;;;;;54.95;45.30;;;7.90;99.90;;;;;;5057661;28;20048;-77
2023/04/09 02:45:36;;;;;;;58.90;47.30;;;7.90;99.90;;;;;;5067659;28;20036;-77
2023/04/09 02:48:05;;;;;;;59.95;47.10;;;7.90;99.90;;;;;;5056553;28;20445;-77
2023/04/09 02:50:30;;;;;;;57.92;46.88;;;8.00;99.90;;;;;;5056464;28;20056;-77
2023/04/09 02:52:56;;;;;;;56.88;45.63;;;7.90;99.90;;;;;;5071830;28;20041;-77
2023/04/09 02:55:22;;;;;;;57.70;46.13;;;7.80;99.90;;;;;;5055684;28;20048;-77
2023/04/09 02:57:47;;;;;;;58.75;46.63;;;7.90;99.90;;;;;;5056665;28;20547;-77
2023/04/09 03:00:13;;;;;;;57.97;45.03;;;7.80;99.90;;;;;;5056431;28;20067;-77
2023/04/09 03:02:39;;;;;;;58.30;47.10;;;7.80;99.90;;;;;;5057742;28;20044;-77
2023/04/09 03:05:05;;;;;;;65.70;48.58;;;7.80;99.90;;;;;;5072214;28;20043;-77
2023/04/09 03:07:31;;;;;;;59.90;47.75;;;7.80;99.90;;;;;;5053511;28;20032;-77
2023/04/09 03:09:57;;;;;;;63.42;51.25;;;7.80;99.90;;;;;;5066864;28;20037;-77
2023/04/09 03:12:22;;;;;;;58.70;47.28;;;7.80;99.90;;;;;;5072018;28;20036;-77
2023/04/09 03:14:48;;;;;;;63.50;52.08;;;7.70;99.90;;;;;;5049369;28;20037;-78
2023/04/09 03:17:14;;;;;;;59.15;48.85;;;7.70;99.90;;;;;;5055779;28;20032;-77
2023/04/09 03:19:40;;;;;;;62.20;49.45;;;7.70;99.90;;;;;;5052308;28;20043;-77
2023/04/09 03:22:06;;;;;;;66.68;51.65;;;7.70;99.90;;;;;;5047385;28;20041;-77
2023/04/09 03:24:34;;;;;;;57.70;47.13;;;7.70;99.90;;;;;;5046462;28;20079;-77
2023/04/09 03:27:03;;;;;;;63.05;48.42;;;7.70;99.90;;;;;;5056389;28;20037;-77
2023/04/09 03:29:28;;;;;;;67.85;51.22;;;7.80;99.90;;;;;;5055706;28;20128;-77
2023/04/09 03:31:54;;;;;;;70.07;53.47;;;7.80;99.90;;;;;;5055499;28;20870;-77
2023/04/09 03:34:20;;;;;;;64.80;52.50;;;7.80;99.90;;;;;;5046386;28;20081;-77
2023/04/09 03:36:45;;;;;;;67.90;52.28;;;7.80;99.90;;;;;;5055712;28;20033;-77
2023/04/09 03:39:11;;;;;;;70.18;53.42;;;7.80;99.90;;;;;;5056063;28;20109;-77
2023/04/09 03:41:37;;;;;;;71.07;52.53;;;7.80;99.90;;;;;;5055618;28;20480;-77
2023/04/09 03:44:03;;;;;;;70.22;54.08;;;7.80;99.90;;;;;;5053674;28;20040;-77
2023/04/09 03:46:31;;;;;;;69.07;55.17;;;7.80;99.90;;;;;;5071962;28;20032;-77
2023/04/09 03:49:00;;;;;;;67.97;52.38;;;7.80;99.90;;;;;;5055156;28;20059;-77
2023/04/09 03:51:26;;;;;;;68.78;50.60;;;7.80;99.90;;;;;;5055033;28;20044;-77
2023/04/09 03:53:51;;;;;;;65.32;54.72;;;7.80;99.90;;;;;;5053257;28;20445;-77
2023/04/09 03:56:17;;;;;;;66.93;50.38;;;7.90;99.90;;;;;;5055129;28;20106;-77
2023/04/09 03:58:43;;;;;;;64.32;50.03;;;7.90;99.90;;;;;;5050623;28;20127;-77
2023/04/09 04:01:11;;;;;;;62.70;48.70;;;7.80;99.90;;;;;;5050426;28;20410;-77
2023/04/09 04:03:39;;;;;;;64.25;49.45;;;7.90;99.90;;;;;;5070838;28;20028;-77
2023/04/09 04:06:07;;;;;;;67.97;50.75;;;7.90;99.90;;;;;;5051117;28;20572;-77
2023/04/09 04:08:33;;;;;;;61.05;49.35;;;7.90;99.90;;;;;;5071696;28;20036;-77
2023/04/09 04:11:03;;;;;;;64.20;48.97;;;7.90;99.90;;;;;;5054847;28;20056;-77
2023/04/09 04:13:29;;;;;;;66.35;52.22;;;7.90;99.90;;;;;;5068229;28;20040;-77
2023/04/09 04:15:55;;;;;;;62.38;49.13;;;7.90;99.90;;;;;;5055058;28;20097;-77
2023/04/09 04:18:21;;;;;;;64.22;50.97;;;7.80;99.90;;;;;;5055254;28;20082;-77
2023/04/09 04:20:46;;;;;;;66.75;52.17;;;7.80;99.90;;;;;;5054738;28;20037;-77
2023/04/09 04:23:12;;;;;;;63.30;50.17;;;7.80;99.90;;;;;;5048075;28;20124;-77
2023/04/09 04:25:40;;;;;;;59.35;50.03;;;7.70;99.90;;;;;;5053153;28;20517;-77
2023/04/09 04:28:06;;;;;;;66.30;52.50;;;7.90;99.90;;;;;;5054890;28;20053;-77
2023/04/09 04:30:32;;;;;;;66.40;53.25;;;7.80;99.90;;;;;;5053953;28;20048;-77
2023/04/09 04:32:57;;;;;;;63.45;53.53;;;7.70;99.90;;;;;;5050562;28;20073;-77
2023/04/09 04:35:23;;;;;;;65.15;50.47;;;7.70;99.90;;;;;;5052141;28;20033;-77
2023/04/09 04:37:52;;;;;;;67.57;56.28;;;7.70;99.90;;;;;;5054518;28;20111;-77
2023/04/09 04:40:17;;;;;;;67.72;53.97;;;7.70;99.90;;;;;;5044938;28;20526;-77
2023/04/09 04:42:46;;;;;;;67.68;54.45;;;7.70;99.90;;;;;;5069829;28;20036;-77
2023/04/09 04:45:14;;;;;;;62.05;52.15;;;7.70;99.90;;;;;;5054262;28;20056;-77
2023/04/09 04:47:40;;;;;;;61.35;49.15;;;7.70;99.90;;;;;;5034495;28;20083;-77
2023/04/09 04:50:06;;;;;;;61.95;51.42;;;7.70;99.90;;;;;;5051232;28;20468;-77
2023/04/09 04:52:32;;;;;;;67.63;53.65;;;7.70;99.90;;;;;;5034182;28;20047;-77
2023/04/09 04:54:58;;;;;;;65.10;53.72;;;7.70;99.90;;;;;;5052879;28;20116;-77
2023/04/09 04:57:24;;;;;;;63.17;51.78;;;7.70;99.90;;;;;;5071416;28;20120;-77
2023/04/09 04:59:49;;;;;;;64.60;54.88;;;7.80;99.90;;;;;;5054631;28;20174;-77
2023/04/09 05:02:15;;;;;;;65.03;52.97;;;7.70;99.90;;;;;;5052332;28;20110;-77
2023/04/09 05:04:41;;;;;;;64.75;51.92;;;7.70;99.90;;;;;;5045919;28;20123;-77
2023/04/09 05:07:06;;;;;;;65.40;55.28;;;7.70;99.90;;;;;;5054021;28;20036;-77
2023/04/09 05:09:34;;;;;;;66.47;52.60;;;7.80;99.90;;;;;;5050340;28;20043;-77
2023/04/09 05:12:01;;;;;;;67.63;55.03;;;7.70;99.90;;;;;;5043188;28;20462;-77
2023/04/09 05:14:27;;;;;;;61.30;51.20;;;7.70;99.90;;;;;;5051017;28;20048;-77
2023/04/09 05:16:55;;;;;;;62.83;52.28;;;7.80;99.90;;;;;;5053567;28;20036;-77
2023/04/09 05:19:20;;;;;;;64.38;53.78;;;7.70;99.90;;;;;;5052894;28;20036;-77
2023/04/09 05:21:46;;;;;;;60.95;50.45;;;7.80;99.90;;;;;;5052420;28;20064;-77
2023/04/09 05:24:12;;;;;;;61.70;51.72;;;7.70;99.90;;;;;;5052702;28;20037;-77
2023/04/09 05:26:37;;;;;;;58.60;48.00;;;7.70;99.90;;;;;;5053001;28;20047;-77
2023/04/09 05:29:03;;;;;;;62.78;51.92;;;7.70;99.90;;;;;;5070625;28;20041;-77
2023/04/09 05:31:29;;;;;;;60.40;51.83;;;7.70;99.90;;;;;;5052688;28;20576;-77
2023/04/09 05:33:54;;;;;;;63.45;50.58;;;7.70;99.90;;;;;;5053129;28;20536;-77
2023/04/09 05:36:20;;;;;;;63.58;53.83;;;7.80;99.90;;;;;;5068648;28;20048;-77
2023/04/09 05:38:46;;;;;;;62.28;52.20;;;7.80;99.90;;;;;;5051890;28;20135;-77
2023/04/09 05:41:12;;;;;;;65.15;53.28;;;7.80;99.90;;;;;;5052635;28;20041;-77
2023/04/09 05:43:38;;;;;;;62.80;52.78;;;7.80;99.90;;;;;;5069999;28;20039;-77
2023/04/09 05:46:07;;;;;;;62.30;52.22;;;7.80;99.90;;;;;;5053610;28;20040;-77
2023/04/09 05:48:36;;;;;;;57.92;48.90;;;7.80;99.90;;;;;;5052574;28;20490;-77
2023/04/09 05:51:02;;;;;;;57.17;49.70;;;7.90;99.90;;;;;;5052815;28;20564;-77
2023/04/09 05:53:28;;;;;;;54.97;47.28;;;7.90;99.90;;;;;;5052626;28;20032;-77
2023/04/09 05:55:53;;;;;;;57.22;47.53;;;7.90;99.90;;;;;;5053505;28;20044;-77
2023/04/09 05:58:20;;;;;;;54.92;47.15;;;7.90;99.90;;;;;;5052897;28;20513;-77
2023/04/09 06:00:46;;;;;;;52.28;45.22;;;7.90;99.90;;;;;;5054226;28;20383;-77
2023/04/09 06:03:11;;;;;;;49.28;41.47;;;7.90;99.90;;;;;;5053939;28;20132;-77
2023/04/09 06:05:37;;;;;;;55.90;46.95;;;8.00;99.90;;;;;;5054381;28;20036;-77
2023/04/09 06:08:03;;;;;;;51.67;45.65;;;8.00;99.90;;;;;;5052643;28;20036;-77
2023/04/09 06:10:31;;;;;;;48.15;43.00;;;8.00;99.90;;;;;;5052616;28;20094;-78
2023/04/09 06:12:56;;;;;;;46.28;41.25;;;8.00;99.90;;;;;;5052349;28;20110;-76
2023/04/09 06:15:26;;;;;;;48.13;42.92;;;8.10;99.90;;;;;;5049164;28;20075;-77
2023/04/09 06:17:52;;;;;;;46.35;41.35;;;8.10;99.90;;;;;;5057497;28;20414;-78
2023/04/09 06:20:21;;;;;;;47.35;42.05;;;8.10;99.90;;;;;;5055262;28;20056;-77
2023/04/09 06:22:46;;;;;;;43.38;38.72;;;8.10;99.90;;;;;;5070035;28;20390;-76
2023/04/09 06:25:18;;;;;;;45.85;40.60;;;8.20;99.90;;;;;;5048969;28;20156;-78
2023/04/09 06:27:46;;;;;;;47.17;41.30;;;8.20;99.90;;;;;;5062231;28;20487;-78
2023/04/09 06:30:12;;;;;;;48.22;43.03;;;8.20;99.90;;;;;;5051855;28;20044;-77
2023/04/09 06:32:38;;;;;;;46.22;40.08;;;8.20;99.90;;;;;;5055327;28;20070;-78
2023/04/09 06:35:04;;;;;;;45.30;40.42;;;8.30;99.90;;;;;;5054755;28;20041;-78
2023/04/09 06:37:30;;;;;;;46.53;41.65;;;8.30;99.90;;;;;;5054942;28;20144;-78
2023/04/09 06:39:56;;;;;;;43.80;39.10;;;8.30;99.90;;;;;;5056706;28;20505;-77
2023/04/09 06:42:21;;;;;;;43.60;39.00;;;8.40;99.90;;;;;;5069962;28;20049;-77
2023/04/09 06:44:47;;;;;;;42.42;37.75;;;8.40;99.90;;;;;;5056905;28;20036;-77
2023/04/09 06:47:13;;;;;;;46.72;40.25;;;8.40;99.90;;;;;;5056585;28;20032;-77
2023/04/09 06:49:38;;;;;;;42.90;37.75;;;8.40;99.90;;;;;;5073145;28;20441;-77
2023/04/09 06:52:06;;;;;;;44.47;39.88;;;8.40;99.90;;;;;;5052065;28;20445;-77
2023/04/09 06:54:34;;;;;;;43.55;38.85;;;8.40;99.90;;;;;;5056407;28;20052;-77
2023/04/09 06:57:00;;;;;;;43.50;38.83;;;8.50;99.90;;;;;;5049414;28;20103;-77
2023/04/09 06:59:26;;;;;;;44.30;39.50;;;8.50;99.90;;;;;;5054715;28;20119;-77
2023/04/09 07:01:51;;;;;;;45.85;40.88;;;8.60;99.90;;;;;;5053904;28;20064;-77
2023/04/09 07:04:17;;;;;;;45.75;40.83;;;8.60;99.90;;;;;;5072774;28;20045;-78
2023/04/09 07:06:43;;;;;;;44.22;39.53;;;8.70;99.90;;;;;;5072672;28;20455;-77
2023/04/09 07:09:09;;;;;;;42.13;37.72;;;8.70;99.90;;;;;;5062112;28;20097;-76
2023/04/09 07:11:34;;;;;;;45.83;41.03;;;8.70;99.90;;;;;;5055828;28;20044;-76
2023/04/09 07:14:00;;;;;;;41.67;37.17;;;8.70;99.90;;;;;;5058167;28;20505;-76
2023/04/09 07:16:26;;;;;;;43.00;38.50;;;8.80;99.90;;;;;;5058416;28;20552;-77
2023/04/09 07:18:51;;;;;;;42.85;38.30;;;8.90;99.90;;;;;;5048814;28;20091;-77
2023/04/09 07:21:20;;;;;;;42.03;37.58;;;8.90;99.90;;;;;;5056793;28;20083;-76
2023/04/09 07:23:48;;;;;;;42.78;38.10;;;8.90;99.90;;;;;;5057613;28;20127;-77
2023/04/09 07:26:13;;;;;;;41.80;37.40;;;9.00;99.90;;;;;;5058071;28;20036;-77
2023/04/09 07:28:41;;;;;;;39.53;35.22;;;9.00;99.90;;;;;;5054185;28;20572;-76
2023/04/09 07:31:06;;;;;;;39.53;35.33;;;9.10;99.90;;;;;;5055975;28;20068;-76
2023/04/09 07:33:32;;;;;;;41.03;36.63;;;9.10;99.90;;;;;;5053884;28;20060;-76
2023/04/09 07:36:00;;;;;;;44.72;40.15;;;9.10;99.90;;;;;;5069500;28;20051;-77
2023/04/09 07:38:28;;;;;;;36.17;32.35;;;9.10;99.90;;;;;;5071776;28;20087;-78
2023/04/09 07:40:54;;;;;;;39.50;35.13;;;9.20;99.90;;;;;;5055488;28;20486;-77
2023/04/09 07:43:22;;;;;;;42.72;38.22;;;9.30;99.90;;;;;;5054397;28;20119;-77
2023/04/09 07:45:50;;;;;;;40.35;36.15;;;9.20;99.90;;;;;;5051935;28;20037;-77
2023/04/09 07:48:16;;;;;;;44.17;39.50;;;9.20;99.90;;;;;;5063544;28;20041;-78
2023/04/09 07:50:44;;;;;;;39.33;35.13;;;9.30;99.90;;;;;;5073764;28;20684;-77
2023/04/09 07:53:10;;;;;;;37.67;33.58;;;9.40;99.90;;;;;;5055044;28;20041;-76
2023/04/09 07:55:36;;;;;;;38.83;34.75;;;9.50;99.90;;;;;;5057697;28;20127;-77
2023/04/09 07:58:03;;;;;;;41.92;37.30;;;9.60;99.90;;;;;;5056163;28;20083;-77
2023/04/09 08:00:29;;;;;;;38.85;34.72;;;9.50;99.90;;;;;;5046775;28;20051;-76
2023/04/09 08:03:02;;;;;;;39.40;35.28;;;9.60;99.90;;;;;;5070128;28;20032;-77
2023/04/09 08:08:24;;;;;;;42.40;37.93;;;9.70;99.90;;;;;;5057391;28;20043;-77
2023/04/09 08:10:50;;;;;;;37.35;33.45;;;9.60;99.90;;;;;;5053177;28;20414;-77
2023/04/09 08:13:16;;;;;;;39.20;35.08;;;9.60;99.90;;;;;;5065950;28;20037;-77
2023/04/09 08:15:41;;;;;;;38.97;34.67;;;9.60;99.90;;;;;;5054792;28;20059;-77
2023/04/09 08:18:10;;;;;;;38.10;34.10;;;9.60;99.90;;;;;;5053080;28;20087;-77
2023/04/09 08:20:35;;;;;;;40.80;36.53;;;9.60;99.90;;;;;;5053232;28;20494;-77
2023/04/09 08:23:01;;;;;;;40.78;36.38;;;9.70;99.90;;;;;;5069859;28;20043;-76
2023/04/09 08:25:27;;;;;;;41.00;36.63;;;9.90;99.90;;;;;;5046260;28;20123;-76
2023/04/09 08:27:55;;;;;;;39.20;35.20;;;10.00;99.90;;;;;;5051733;28;20037;-77
2023/04/09 08:30:24;;;;;;;38.40;34.47;;;10.20;99.90;;;;;;5054366;28;20048;-76
2023/04/09 08:32:50;;;;;;;38.65;34.65;;;10.30;99.90;;;;;;5054177;28;20150;-76
2023/04/09 08:35:15;;;;;;;38.55;34.55;;;10.40;99.90;;;;;;5052350;28;20098;-76
2023/04/09 08:37:43;;;;;;;39.47;35.40;;;10.50;99.90;;;;;;5054057;28;20372;-76
2023/04/09 08:40:12;;;;;;;39.45;35.25;;;10.70;99.90;;;;;;5054486;28;20099;-76
2023/04/09 08:42:45;;;;;;;38.72;34.67;;;10.90;99.90;;;;;;5050047;28;20041;-77
2023/04/09 08:45:14;;;;;;;38.88;34.78;;;11.10;99.90;;;;;;5060315;28;20091;-78
2023/04/09 08:47:42;;;;;;;39.60;35.55;;;11.50;99.90;;;;;;5066531;28;20044;-77
2023/04/09 08:50:32;;;;;;;37.38;33.40;;;11.50;99.90;;;;;;5051295;28;20041;-79
2023/04/09 08:57:22;;;;;;;39.53;35.53;;;12.20;99.90;;;;;;5056789;28;20442;-80
2023/04/09 09:07:16;;;;;;;37.30;33.00;;;13.60;99.90;;;;;;5076037;28;20065;-80
2023/04/09 09:10:43;;;;;;;37.08;33.33;;;13.40;99.90;;;;;;5071010;28;20047;-79
2023/04/09 09:13:49;;;;;;;35.30;31.80;;;13.90;99.90;;;;;;5010580;28;20116;-80
2023/04/09 09:17:10;;;;;;;34.25;30.63;;;14.70;99.90;;;;;;5081187;28;20043;-81
2023/04/09 09:23:43;;;;;;;30.65;27.40;;;15.50;99.90;;;;;;5046815;28;20075;-80
2023/04/09 09:26:38;;;;;;;31.67;28.42;;;15.90;99.90;;;;;;5063656;28;20398;-80
2023/04/09 09:29:33;;;;;;;33.13;29.77;;;16.30;99.90;;;;;;5042907;28;20547;-80
2023/04/09 09:33:03;;;;;;;32.50;29.15;;;16.30;99.90;;;;;;5039232;28;20076;-80
2023/04/09 09:36:06;;;;;;;30.27;26.92;;;16.10;96.90;;;;;;5050007;28;20116;-80
2023/04/09 09:39:11;;;;;;;31.50;28.20;;;16.30;98.10;;;;;;5080393;28;20095;-80
2023/04/09 09:42:36;;;;;;;30.73;27.55;;;16.50;99.90;;;;;;5050732;28;20048;-80
2023/04/09 09:48:25;;;;;;;31.25;28.15;;;17.20;99.90;;;;;;5041160;28;20048;-81
2023/04/09 09:51:23;;;;;;;31.02;27.88;;;17.80;98.60;;;;;;5054709;28;20100;-80
2023/04/09 09:54:09;;;;;;;31.40;28.35;;;17.90;79.40;;;;;;5060527;28;20094;-80
2023/04/09 09:56:56;;;;;;;31.50;28.35;;;17.60;93.90;;;;;;5063202;28;20052;-81
2023/04/09 09:59:43;;;;;;;;;;;;;;;;;;;;;
2023/04/09 10:03:24;;;;;;;30.10;27.20;;;18.20;83.80;;;;;;5072143;28;20091;-80
2023/04/09 10:06:30;;;;;;;;;;;;;;;;;;;;;
2023/04/09 10:13:11;;;;;;;31.90;28.70;;;17.80;75.40;;;;;;4905743;29;20063;-81
2023/04/09 10:15:52;;;;;;;30.98;27.88;;;17.50;81.90;;;;;;4964945;28;20050;-81
2023/04/09 10:18:35;;;;;;;32.53;29.23;;;17.40;83.90;;;;;;5059117;28;20037;-81
2023/04/09 10:21:42;;;;;;;31.80;28.50;;;17.20;90.20;;;;;;5073996;28;20040;-80
2023/04/09 10:24:58;;;;;;;;;;;;;;;;;;;;;
2023/04/09 10:28:39;;;;;;;30.50;27.35;;;17.40;89.80;;;;;;5074761;28;20387;-81
2023/04/09 10:31:14;;;;;;;30.10;27.02;;;17.70;74.20;;;;;;5061597;28;20063;-81
2023/04/09 10:34:18;;;;;;;30.20;27.00;;;17.30;82.10;;;;;;5067470;28;20040;-81
2023/04/09 10:37:27;;;;;;;30.40;27.20;;;17.10;82.20;;;;;;5043689;28;20087;-81
2023/04/09 10:40:23;;;;;;;29.85;26.85;;;16.90;80.90;;;;;;5063162;28;20045;-81
2023/04/09 10:43:40;;;;;;;29.58;26.58;;;16.70;83.90;;;;;;5065643;28;20091;-81
2023/04/09 10:54:48;;;;;;;29.40;25.33;;;16.80;83.80;;;;;;4947997;29;20053;-80
2023/04/09 10:57:53;;;;;;;30.27;27.08;;;16.50;83.00;;;;;;4957315;28;20046;-80
2023/04/09 11:06:56;;;;;;;30.42;27.33;;;15.80;84.90;;;;;;5064280;28;20049;-81
2023/04/09 11:09:34;;;;;;;31.10;28.02;;;15.40;90.40;;;;;;5026359;28;20565;-80
2023/04/09 11:17:01;;;;;;;31.73;28.48;;;15.10;99.90;;;;;;5034801;28;20049;-82
2023/04/09 11:19:38;;;;;;;32.58;29.27;;;15.10;99.90;;;;;;4924103;28;20407;-82
2023/04/09 11:22:38;;;;;;;31.75;28.70;;;15.20;99.90;;;;;;5016698;28;20034;-82
2023/04/09 11:26:00;;;;;;;27.25;24.55;;;15.40;99.90;;;;;;5015068;28;20053;-81
2023/04/09 11:39:23;;;;;;;23.17;20.88;;;18.80;75.40;;;;;;4938133;28;20041;-81
2023/04/09 11:42:42;;;;;;;23.17;20.88;;;18.20;74.50;;;;;;5017489;28;20142;-82
2023/04/09 11:45:46;;;;;;;22.08;19.98;;;17.70;76.40;;;;;;5006738;28;20076;-82
2023/04/09 11:48:36;;;;;;;22.95;19.42;;;17.40;76.20;;;;;;4981657;28;20448;-83
2023/04/09 11:51:26;;;;;;;21.23;19.13;;;17.20;77.70;;;;;;5019710;23;20045;-82
2023/04/09 11:54:44;;;;;;;21.77;19.58;;;17.30;76.00;;;;;;5072271;28;20048;-82
2023/04/09 11:58:02;;;;;;;19.90;18.00;;;17.40;71.70;;;;;;5025711;28;20063;-82
2023/04/09 12:00:45;;;;;;;20.25;18.25;;;17.50;71.70;;;;;;5044854;28;20040;-80
2023/04/09 12:03:28;;;;;;;20.52;18.52;;;18.00;72.80;;;;;;5025319;28;20102;-81
2023/04/09 12:05:54;;;;;;;21.40;19.25;;;18.80;71.00;;;;;;5027552;28;20402;-77
2023/04/09 12:08:38;;;;;;;21.27;19.08;;;19.10;70.60;;;;;;5040538;28;20033;-76
2023/04/09 12:11:14;;;;;;;21.55;19.45;;;19.00;69.10;;;;;;5043883;28;20048;-77
2023/04/09 12:13:41;;;;;;;20.98;18.90;;;19.30;63.00;;;;;;5052215;28;20044;-77
2023/04/09 12:16:18;;;;;;;20.45;18.42;;;18.90;65.20;;;;;;5024085;28;20049;-76
2023/04/09 12:18:44;;;;;;;21.13;18.92;;;19.20;67.90;;;;;;5038902;28;20036;-76
2023/04/09 12:21:17;;;;;;;20.58;18.50;;;19.80;67.60;;;;;;5045196;28;20032;-77
2023/04/09 12:23:48;;;;;;;21.15;18.92;;;20.30;67.80;;;;;;5050515;28;20040;-76
2023/04/09 12:26:20;;;;;;;18.63;16.73;;;20.90;66.20;;;;;;5032493;28;20086;-76
2023/04/09 12:28:48;;;;;;;19.38;17.58;;;21.40;64.70;;;;;;5033300;28;20514;-76
2023/04/09 12:31:14;;;;;;;19.23;17.23;;;21.80;63.70;;;;;;5043689;28;20036;-76
2023/04/09 12:33:43;;;;;;;19.35;17.45;;;22.10;62.20;;;;;;5039121;28;20044;-76
2023/04/09 12:36:13;;;;;;;19.42;17.42;;;22.00;60.60;;;;;;5056855;28;20044;-76
2023/04/09 12:38:39;;;;;;;18.85;17.00;;;22.20;61.90;;;;;;5029485;28;20099;-76
2023/04/09 12:41:05;;;;;;;20.23;18.30;;;22.30;59.70;;;;;;5034073;28;20041;-75
2023/04/09 12:43:30;;;;;;;20.65;18.63;;;22.10;58.50;;;;;;5018644;28;20509;-75
2023/04/09 12:45:56;;;;;;;20.27;18.38;;;21.90;58.30;;;;;;5075980;28;20032;-75
2023/04/09 12:48:22;;;;;;;21.00;19.00;;;21.80;58.10;;;;;;5083561;28;20032;-75
2023/04/09 12:50:48;;;;;;;20.00;18.00;;;21.50;59.40;;;;;;5032201;28;20089;-77
2023/04/09 12:53:13;;;;;;;20.92;18.83;;;21.40;54.70;;;;;;5032451;28;20487;-76
2023/04/09 12:55:39;;;;;;;21.00;18.90;;;20.70;57.10;;;;;;5032356;28;20036;-76
2023/04/09 12:58:07;;;;;;;20.05;18.10;;;20.70;58.30;;;;;;5049125;28;20044;-76
2023/04/09 13:00:38;;;;;;;20.25;18.23;;;20.90;59.90;;;;;;5056640;28;20040;-76
2023/04/09 13:03:04;;;;;;;20.55;18.55;;;21.50;61.50;;;;;;5037154;28;20052;-77
2023/04/09 13:05:34;;;;;;;19.70;17.80;;;21.80;55.70;;;;;;5045185;28;20050;-77
2023/04/09 13:08:02;;;;;;;20.63;18.63;;;21.70;53.20;;;;;;5068148;28;20126;-77
2023/04/09 13:10:30;;;;;;;20.10;18.15;;;21.10;56.10;;;;;;5057550;28;20076;-77
2023/04/09 13:12:55;;;;;;;18.52;16.73;;;21.00;58.40;;;;;;5056849;28;20047;-77
2023/04/09 13:15:22;;;;;;;19.80;17.90;;;21.20;59.60;;;;;;5053199;28;20399;-78
2023/04/09 13:17:49;;;;;;;18.85;17.05;;;21.30;57.40;;;;;;5029909;28;20478;-77
2023/04/09 13:20:19;;;;;;;19.05;17.15;;;21.10;59.10;;;;;;5046307;28;20049;-78
2023/04/09 13:22:47;;;;;;;18.23;16.42;;;21.30;58.90;;;;;;5058657;28;20506;-77
2023/04/09 13:25:15;;;;;;;18.90;17.00;;;21.70;56.50;;;;;;5045261;28;20478;-77
2023/04/09 13:27:40;;;;;;;18.40;16.50;;;21.90;55.50;;;;;;5068931;28;20043;-77
2023/04/09 13:30:08;;;;;;;17.80;16.05;;;22.10;56.60;;;;;;5044258;28;20040;-77
2023/04/09 13:32:36;;;;;;;16.83;15.23;;;22.30;56.00;;;;;;5043608;28;20040;-75
2023/04/09 13:35:01;;;;;;;16.58;14.98;;;22.60;55.50;;;;;;5040826;28;20044;-76
2023/04/09 13:37:27;;;;;;;19.13;15.25;;;22.60;54.10;;;;;;5019477;28;20048;-80
2023/04/09 13:39:57;;;;;;;16.50;14.85;;;22.70;54.50;;;;;;5029197;28;20436;-80
2023/04/09 13:42:23;;;;;;;16.95;15.35;;;22.90;53.90;;;;;;5034692;28;20143;-80
2023/04/09 13:44:52;;;;;;;15.35;13.95;;;22.60;53.50;;;;;;5067075;28;20064;-81
2023/04/09 13:47:18;;;;;;;15.52;14.02;;;22.00;54.40;;;;;;5062677;28;20044;-81
2023/04/09 13:49:44;;;;;;;15.77;14.20;;;21.80;54.30;;;;;;5047943;28;20032;-78
2023/04/09 13:52:10;;;;;;;14.65;13.20;;;21.80;55.10;;;;;;5051402;28;20534;-76
2023/04/09 13:54:36;;;;;;;15.00;13.60;;;22.00;56.30;;;;;;5034923;28;20124;-76
2023/04/09 13:57:02;;;;;;;13.23;12.02;;;22.20;56.70;;;;;;5061879;28;20045;-76
2023/04/09 13:59:28;;;;;;;13.63;12.32;;;22.40;55.20;;;;;;5053710;28;20051;-76